createdAt,value
2023-01-18T00:01:15.805Z,79.89
2023-01-18T00:03:42.708Z,80.30
2023-01-18T00:06:10.952Z,80.04
2023-01-18T00:08:39.547Z,80.30
2023-01-18T00:11:07.605Z,79.00
2023-01-18T00:13:35.044Z,81.66
2023-01-18T00:16:11.370Z,80.67
2023-01-18T00:18:39.283Z,80.66
2023-01-18T00:21:08.802Z,79.97
2023-01-18T00:23:36.203Z,79.74
2023-01-18T00:26:06.313Z,79.04
2023-01-18T00:28:34.041Z,77.85
2023-01-18T00:31:01.195Z,78.27
2023-01-18T00:33:28.140Z,78.36
2023-01-18T00:35:59.473Z,77.03
2023-01-18T00:38:26.688Z,77.99
2023-01-18T00:40:53.516Z,79.73
2023-01-18T00:43:39.068Z,78.47
2023-01-18T00:46:09.777Z,79.15
2023-01-18T00:48:38.995Z,78.46
2023-01-18T00:51:07.489Z,78.94
2023-01-18T00:53:35.312Z,78.81
2023-01-18T00:56:02.127Z,79.09
2023-01-18T00:58:29.100Z,76.93
2023-01-18T01:00:56.180Z,76.39
2023-01-18T01:03:23.135Z,77.66
2023-01-18T01:06:08.506Z,77.40
2023-01-18T01:08:35.603Z,76.81
2023-01-18T01:11:11.348Z,76.12
2023-01-18T01:13:57.219Z,78.07
2023-01-18T01:16:43.060Z,76.44
2023-01-18T01:19:28.357Z,76.51
2023-01-18T01:22:13.770Z,78.55
2023-01-18T01:24:59.307Z,78.52
2023-01-18T01:27:26.295Z,79.36
2023-01-18T01:29:53.267Z,78.10
2023-01-18T01:32:20.177Z,77.37
2023-01-18T01:34:46.996Z,76.78
2023-01-18T01:37:13.876Z,76.44
2023-01-18T01:39:40.723Z,76.20
2023-01-18T01:42:11.439Z,75.16
2023-01-18T01:44:43.508Z,72.68
2023-01-18T01:47:17.859Z,72.65
2023-01-18T01:49:52.449Z,72.19
2023-01-18T01:52:29.824Z,73.04
2023-01-18T01:55:27.364Z,74.12
2023-01-18T01:58:02.318Z,73.59
2023-01-18T02:00:29.918Z,74.04
2023-01-18T02:03:03.544Z,74.23
2023-01-18T02:05:32.221Z,73.01
2023-01-18T02:08:01.593Z,72.98
2023-01-18T02:10:30.287Z,72.98
2023-01-18T02:12:59.245Z,74.38
2023-01-18T02:15:37.602Z,74.09
2023-01-18T02:18:12.460Z,74.39
2023-01-18T02:20:48.510Z,74.22
2023-01-18T02:23:53.004Z,73.77
2023-01-18T02:26:50.768Z,73.78
2023-01-18T02:29:53.782Z,74.92
2023-01-18T02:32:20.604Z,75.62
2023-01-18T02:34:58.499Z,75.51
2023-01-18T02:37:37.401Z,74.73
2023-01-18T02:40:11.375Z,73.85
2023-01-18T02:42:58.521Z,73.22
2023-01-18T02:45:50.912Z,74.54
2023-01-18T02:48:20.841Z,74.76
2023-01-18T02:50:47.887Z,75.09
2023-01-18T02:53:15.406Z,75.44
2023-01-18T02:56:01.134Z,75.10
2023-01-18T02:58:51.366Z,73.38
2023-01-18T03:01:48.874Z,73.00
2023-01-18T03:04:21.797Z,72.75
2023-01-18T03:06:57.529Z,73.44
2023-01-18T03:09:27.276Z,72.71
2023-01-18T03:12:49.607Z,73.44
2023-01-18T03:15:29.121Z,71.65
2023-01-18T03:18:07.503Z,71.78
2023-01-18T03:20:40.662Z,70.79
2023-01-18T03:23:36.057Z,70.26
2023-01-18T03:26:06.387Z,70.47
2023-01-18T03:29:03.573Z,71.45
2023-01-18T03:32:22.639Z,70.37
2023-01-18T03:35:00.148Z,69.90
2023-01-18T03:37:29.472Z,70.36
2023-01-18T03:40:09.993Z,70.16
2023-01-18T03:43:04.460Z,70.62
2023-01-18T03:45:42.036Z,69.87
2023-01-18T03:48:10.333Z,70.04
2023-01-18T03:50:53.152Z,69.42
2023-01-18T03:53:32.740Z,69.32
2023-01-18T03:56:07.030Z,68.31
2023-01-18T03:58:36.619Z,69.21
2023-01-18T04:01:04.725Z,70.69
2023-01-18T04:03:32.889Z,72.60
2023-01-18T04:06:01.322Z,72.42
2023-01-18T04:08:28.482Z,72.68
2023-01-18T04:10:55.327Z,72.63
2023-01-18T04:13:22.387Z,73.07
2023-01-18T04:15:49.510Z,72.67
2023-01-18T04:18:16.586Z,72.59
2023-01-18T04:20:43.523Z,72.45
2023-01-18T04:23:11.084Z,72.91
2023-01-18T04:25:40.882Z,73.83
2023-01-18T04:28:08.239Z,73.11
2023-01-18T04:30:35.158Z,73.95
2023-01-18T04:33:02.167Z,73.74
2023-01-18T04:35:29.009Z,73.53
2023-01-18T04:37:55.830Z,73.12
2023-01-18T04:40:22.721Z,72.31
2023-01-18T04:42:53.932Z,71.58
2023-01-18T04:45:21.014Z,69.85
2023-01-18T04:47:47.905Z,70.54
2023-01-18T04:50:14.882Z,71.55
2023-01-18T04:52:41.776Z,72.29
2023-01-18T04:55:09.164Z,72.04
2023-01-18T04:57:36.104Z,71.98
2023-01-18T05:00:03.554Z,71.65
2023-01-18T05:02:30.414Z,71.40
2023-01-18T05:04:57.266Z,72.14
2023-01-18T05:07:27.373Z,71.94
2023-01-18T05:09:54.239Z,72.93
2023-01-18T05:12:21.147Z,73.41
2023-01-18T05:14:48.019Z,72.99
2023-01-18T05:17:14.941Z,73.42
2023-01-18T05:19:41.852Z,73.13
2023-01-18T05:22:08.835Z,73.87
2023-01-18T05:24:36.659Z,73.17
2023-01-18T05:27:03.665Z,72.88
2023-01-18T05:29:30.505Z,72.21
2023-01-18T05:31:57.466Z,72.39
2023-01-18T05:34:24.450Z,71.65
2023-01-18T05:36:51.431Z,71.62
2023-01-18T05:39:18.320Z,72.00
2023-01-18T05:41:45.226Z,70.90
2023-01-18T05:44:12.090Z,71.94
2023-01-18T05:46:39.316Z,72.07
2023-01-18T05:49:06.327Z,71.20
2023-01-18T05:51:35.154Z,71.99
2023-01-18T05:54:02.093Z,71.66
2023-01-18T05:56:28.946Z,71.33
2023-01-18T05:58:55.838Z,71.29
2023-01-18T06:01:22.797Z,71.58
2023-01-18T06:03:49.717Z,71.77
2023-01-18T06:06:16.884Z,71.06
2023-01-18T06:08:44.055Z,70.79
2023-01-18T06:11:11.147Z,71.49
2023-01-18T06:13:38.014Z,71.01
2023-01-18T06:16:05.370Z,70.58
2023-01-18T06:18:33.789Z,70.78
2023-01-18T06:21:04.277Z,71.23
2023-01-18T06:23:31.672Z,71.36
2023-01-18T06:25:58.838Z,71.27
2023-01-18T06:28:26.196Z,71.25
2023-01-18T06:30:55.230Z,71.17
2023-01-18T06:33:25.755Z,70.56
2023-01-18T06:35:52.696Z,70.74
2023-01-18T06:38:20.777Z,69.37
2023-01-18T06:40:47.788Z,69.87
2023-01-18T06:43:16.079Z,70.08
2023-01-18T06:45:43.011Z,68.45
2023-01-18T06:48:09.900Z,69.85
2023-01-18T06:50:36.832Z,69.66
2023-01-18T06:53:03.937Z,68.43
2023-01-18T06:55:30.908Z,67.26
2023-01-18T06:57:57.872Z,67.20
2023-01-18T07:00:25.063Z,66.74
2023-01-18T07:02:53.238Z,67.04
2023-01-18T07:05:20.673Z,66.23
2023-01-18T07:07:47.581Z,66.18
2023-01-18T07:10:16.656Z,67.15
2023-01-18T07:12:47.553Z,66.44
2023-01-18T07:15:21.642Z,66.50
2023-01-18T07:17:50.679Z,65.70
2023-01-18T07:20:18.105Z,65.37
2023-01-18T07:22:45.219Z,64.73
2023-01-18T07:25:13.578Z,65.01
2023-01-18T07:27:43.311Z,67.01
2023-01-18T07:30:14.911Z,66.86
2023-01-18T07:32:49.571Z,67.79
2023-01-18T07:35:24.065Z,68.46
2023-01-18T07:37:53.373Z,66.99
2023-01-18T07:40:21.667Z,66.31
2023-01-18T07:42:49.313Z,66.29
2023-01-18T07:45:16.387Z,65.63
2023-01-18T07:47:46.328Z,66.35
2023-01-18T07:50:14.498Z,65.18
2023-01-18T07:52:41.515Z,64.13
2023-01-18T07:55:09.181Z,63.06
2023-01-18T07:57:36.104Z,61.60
2023-01-18T08:00:03.281Z,61.70
2023-01-18T08:02:39.401Z,63.32
2023-01-18T08:05:07.190Z,63.58
2023-01-18T08:07:34.028Z,63.31
2023-01-18T08:10:00.980Z,64.61
2023-01-18T08:12:28.071Z,64.76
2023-01-18T08:14:57.443Z,64.65
2023-01-18T08:17:24.382Z,66.47
2023-01-18T08:19:51.266Z,66.85
2023-01-18T08:22:18.087Z,66.44
2023-01-18T08:24:44.977Z,65.47
2023-01-18T08:27:11.850Z,64.80
2023-01-18T08:29:38.738Z,64.05
2023-01-18T08:32:05.828Z,61.72
2023-01-18T08:34:32.679Z,56.73
2023-01-18T08:36:59.536Z,53.92
2023-01-18T08:39:26.430Z,50.46
2023-01-18T08:41:53.262Z,51.23
2023-01-18T08:44:20.520Z,50.98
2023-01-18T08:46:47.516Z,52.74
2023-01-18T08:49:14.648Z,50.00
2023-01-18T08:51:41.618Z,50.61
2023-01-18T08:54:08.839Z,50.80
2023-01-18T08:56:35.767Z,52.23
2023-01-18T08:59:02.886Z,50.57
2023-01-18T09:01:29.881Z,48.96
2023-01-18T09:03:58.612Z,46.75
2023-01-18T09:06:32.051Z,46.28
2023-01-18T09:08:59.618Z,45.41
2023-01-18T09:11:27.189Z,44.06
2023-01-18T09:14:00.807Z,45.05
2023-01-18T09:16:29.998Z,45.19
2023-01-18T09:18:58.452Z,44.58
2023-01-18T09:21:28.161Z,44.25
2023-01-18T09:23:55.267Z,44.32
2023-01-18T09:26:22.200Z,44.37
2023-01-18T09:28:52.537Z,45.05
2023-01-18T09:31:25.306Z,44.02
2023-01-18T09:33:53.934Z,44.25
2023-01-18T09:36:26.451Z,44.73
2023-01-18T09:38:55.168Z,43.36
2023-01-18T09:41:33.853Z,42.35
2023-01-18T09:44:07.846Z,43.57
2023-01-18T09:46:38.120Z,44.37
2023-01-18T09:49:08.392Z,43.59
2023-01-18T09:52:09.855Z,44.78
2023-01-18T09:54:58.664Z,42.86
2023-01-18T09:58:03.972Z,43.05
2023-01-18T10:00:37.287Z,43.92
2023-01-18T10:03:18.824Z,44.97
2023-01-18T10:05:52.695Z,44.23
2023-01-18T10:08:27.744Z,45.85
2023-01-18T10:11:02.650Z,46.25
2023-01-18T10:13:35.670Z,45.45
2023-01-18T10:16:03.308Z,45.98
2023-01-18T10:18:30.678Z,47.32
2023-01-18T10:21:06.488Z,47.15
2023-01-18T10:23:50.245Z,46.86
2023-01-18T10:26:26.433Z,46.26
2023-01-18T10:29:07.304Z,46.42
2023-01-18T10:31:57.320Z,45.46
2023-01-18T10:34:39.594Z,45.42
2023-01-18T10:37:17.504Z,46.08
2023-01-18T10:39:51.043Z,45.41
2023-01-18T10:42:23.939Z,45.65
2023-01-18T10:44:51.029Z,46.74
2023-01-18T10:47:19.761Z,46.70
2023-01-18T10:49:50.467Z,46.85
2023-01-18T10:52:25.899Z,48.10
2023-01-18T10:55:02.916Z,48.42
2023-01-18T10:57:37.420Z,46.87
2023-01-18T11:00:12.661Z,46.50
2023-01-18T11:02:40.465Z,45.93
2023-01-18T11:05:21.416Z,47.46
2023-01-18T11:07:48.436Z,47.22
2023-01-18T11:10:27.632Z,46.66
2023-01-18T11:12:54.947Z,47.56
2023-01-18T11:15:27.395Z,47.63
2023-01-18T11:17:58.082Z,46.99
2023-01-18T11:20:35.736Z,46.61
2023-01-18T11:23:14.849Z,47.37
2023-01-18T11:25:50.620Z,48.00
2023-01-18T11:28:23.608Z,47.20
2023-01-18T11:31:00.849Z,48.58
2023-01-18T11:33:29.486Z,48.39
2023-01-18T11:36:02.001Z,47.71
2023-01-18T11:38:34.275Z,47.40
2023-01-18T11:41:07.660Z,45.58
2023-01-18T11:43:37.788Z,45.31
2023-01-18T11:46:16.903Z,46.39
2023-01-18T11:48:58.115Z,45.08
2023-01-18T11:51:44.859Z,44.57
2023-01-18T11:54:38.857Z,46.54
2023-01-18T11:57:07.553Z,49.45
2023-01-18T11:59:38.022Z,49.83
2023-01-18T12:02:36.603Z,50.75
2023-01-18T12:05:29.786Z,49.94
2023-01-18T12:08:14.859Z,49.90
2023-01-18T12:10:46.577Z,49.82
2023-01-18T12:13:22.534Z,50.40
2023-01-18T12:16:17.129Z,50.60
2023-01-18T12:19:15.561Z,50.16
2023-01-18T12:22:09.728Z,50.00
2023-01-18T12:25:05.593Z,49.30
2023-01-18T12:27:57.299Z,49.55
2023-01-18T12:30:57.595Z,50.22
2023-01-18T12:33:46.295Z,49.52
2023-01-18T12:36:37.434Z,49.82
2023-01-18T12:39:33.924Z,49.89
2023-01-18T12:42:05.597Z,49.80
2023-01-18T12:45:21.962Z,50.10
2023-01-18T12:48:26.747Z,50.80
2023-01-18T12:50:56.462Z,50.98
2023-01-18T12:53:41.365Z,50.18
2023-01-18T12:56:15.489Z,49.72
2023-01-18T12:58:44.217Z,49.58
2023-01-18T13:01:20.435Z,48.39
2023-01-18T13:03:51.697Z,48.57
2023-01-18T13:06:21.281Z,48.85
2023-01-18T13:09:04.032Z,48.41
2023-01-18T13:11:35.657Z,48.65
2023-01-18T13:14:27.009Z,49.56
2023-01-18T13:17:11.547Z,51.03
2023-01-18T13:19:47.199Z,51.35
2023-01-18T13:22:44.283Z,51.58
2023-01-18T13:25:26.494Z,51.78
2023-01-18T13:28:18.851Z,53.00
2023-01-18T13:30:53.427Z,54.00
2023-01-18T13:33:26.407Z,54.01
2023-01-18T13:35:56.460Z,54.61
2023-01-18T13:38:40.794Z,54.84
2023-01-18T13:41:12.255Z,54.70
2023-01-18T13:43:45.179Z,55.23
2023-01-18T13:46:15.057Z,55.45
2023-01-18T13:48:51.153Z,55.36
2023-01-18T13:51:39.593Z,55.57
2023-01-18T13:54:29.771Z,55.69
2023-01-18T13:57:05.623Z,55.69
2023-01-18T13:59:36.171Z,56.59
2023-01-18T14:02:34.505Z,57.04
2023-01-18T14:05:07.433Z,56.69
2023-01-18T14:07:42.927Z,56.90
2023-01-18T14:10:26.545Z,57.76
2023-01-18T14:12:56.025Z,57.71
2023-01-18T14:15:27.891Z,57.56
2023-01-18T14:17:58.914Z,57.66
2023-01-18T14:20:35.129Z,57.27
2023-01-18T14:23:17.115Z,58.57
2023-01-18T14:26:06.781Z,58.01
2023-01-18T14:28:37.308Z,57.54
2023-01-18T14:31:07.821Z,58.01
2023-01-18T14:33:39.692Z,58.29
2023-01-18T14:36:08.591Z,57.86
2023-01-18T14:38:36.620Z,57.89
2023-01-18T14:41:07.496Z,58.63
2023-01-18T14:43:37.926Z,59.34
2023-01-18T14:46:10.231Z,59.28
2023-01-18T14:48:53.317Z,58.82
2023-01-18T14:51:23.328Z,59.42
2023-01-18T14:54:02.070Z,60.02
2023-01-18T14:56:32.037Z,59.24
2023-01-18T14:59:00.217Z,59.63
2023-01-18T15:01:31.996Z,58.16
2023-01-18T15:04:04.055Z,58.01
2023-01-18T15:06:40.147Z,57.65
2023-01-18T15:09:09.559Z,56.73
2023-01-18T15:11:38.693Z,57.58
2023-01-18T15:14:19.030Z,58.78
2023-01-18T15:16:48.790Z,58.66
2023-01-18T15:19:43.203Z,57.39
2023-01-18T15:22:16.085Z,56.69
2023-01-18T15:24:46.759Z,57.06
2023-01-18T15:27:19.901Z,59.13
2023-01-18T15:29:49.705Z,58.18
2023-01-18T15:32:18.129Z,58.62
2023-01-18T15:34:48.678Z,58.22
2023-01-18T15:37:24.589Z,58.10
2023-01-18T15:40:14.496Z,59.01
2023-01-18T15:42:49.668Z,59.18
2023-01-18T15:45:38.731Z,58.52
2023-01-18T15:48:22.942Z,59.85
2023-01-18T15:50:55.909Z,59.47
2023-01-18T15:53:45.977Z,59.84
2023-01-18T15:56:34.440Z,60.22
2023-01-18T15:59:06.868Z,60.70
2023-01-18T16:01:36.901Z,60.81
2023-01-18T16:04:21.569Z,59.92
2023-01-18T16:06:48.929Z,60.02
2023-01-18T16:09:16.134Z,59.29
2023-01-18T16:11:56.502Z,59.02
2023-01-18T16:14:29.341Z,59.07
2023-01-18T16:17:07.008Z,59.17
2023-01-18T16:19:36.154Z,59.48
2023-01-18T16:22:05.550Z,59.19
2023-01-18T16:25:01.639Z,59.15
2023-01-18T16:27:33.907Z,59.96
2023-01-18T16:30:08.216Z,59.22
2023-01-18T16:32:38.875Z,59.50
2023-01-18T16:35:09.961Z,60.42
2023-01-18T16:37:38.603Z,59.06
2023-01-18T16:40:06.519Z,59.10
2023-01-18T16:42:53.848Z,59.21
2023-01-18T16:45:20.740Z,59.19
2023-01-18T16:47:47.686Z,60.28
2023-01-18T16:50:15.838Z,61.12
2023-01-18T16:52:43.222Z,61.04
2023-01-18T16:55:13.776Z,60.67
2023-01-18T16:57:41.038Z,60.52
2023-01-18T17:00:11.560Z,60.74
2023-01-18T17:02:38.420Z,60.71
2023-01-18T17:05:05.709Z,60.10
2023-01-18T17:07:33.329Z,60.17
2023-01-18T17:10:00.203Z,59.64
2023-01-18T17:12:27.080Z,59.60
2023-01-18T17:14:53.994Z,59.51
2023-01-18T17:17:20.893Z,59.67
2023-01-18T17:19:48.158Z,60.10
2023-01-18T17:22:15.116Z,60.99
2023-01-18T17:24:42.006Z,61.19
2023-01-18T17:27:12.354Z,60.62
2023-01-18T17:29:39.213Z,61.71
2023-01-18T17:32:07.964Z,60.85
2023-01-18T17:34:34.896Z,60.70
2023-01-18T17:37:03.262Z,59.98
2023-01-18T17:39:43.551Z,60.43
2023-01-18T17:42:25.866Z,60.13
2023-01-18T17:45:03.308Z,61.62
2023-01-18T17:47:31.928Z,61.37
2023-01-18T17:49:59.268Z,61.31
2023-01-18T17:52:27.550Z,62.04
2023-01-18T17:54:54.535Z,61.41
2023-01-18T17:57:21.473Z,61.10
2023-01-18T17:59:49.126Z,62.44
2023-01-18T18:02:16.239Z,62.73
2023-01-18T18:04:43.157Z,62.48
2023-01-18T18:07:10.284Z,61.61
2023-01-18T18:09:40.717Z,61.44
2023-01-18T18:12:08.450Z,61.76
2023-01-18T18:14:37.427Z,62.03
2023-01-18T18:17:06.016Z,62.13
2023-01-18T18:19:33.944Z,62.30
2023-01-18T18:22:01.628Z,61.68
2023-01-18T18:24:28.583Z,61.62
2023-01-18T18:26:55.779Z,63.11
2023-01-18T18:29:22.693Z,62.45
2023-01-18T18:31:49.635Z,61.91
2023-01-18T18:34:16.611Z,62.55
2023-01-18T18:36:43.587Z,64.72
2023-01-18T18:39:10.569Z,63.06
2023-01-18T18:41:37.615Z,62.60
2023-01-18T18:44:05.393Z,62.43
2023-01-18T18:46:32.790Z,62.38
2023-01-18T18:48:59.957Z,63.10
2023-01-18T18:51:27.013Z,64.40
2023-01-18T18:53:53.950Z,63.79
2023-01-18T18:56:20.886Z,63.37
2023-01-18T18:58:49.111Z,63.44
2023-01-18T19:01:25.603Z,62.75
2023-01-18T19:03:54.051Z,62.92
2023-01-18T19:06:22.727Z,63.24
2023-01-18T19:08:50.676Z,62.86
2023-01-18T19:11:18.174Z,62.26
2023-01-18T19:13:47.081Z,61.82
2023-01-18T19:16:14.907Z,61.88
2023-01-18T19:18:41.909Z,61.84
2023-01-18T19:21:08.968Z,62.63
2023-01-18T19:23:35.933Z,64.85
2023-01-18T19:26:03.990Z,64.58
2023-01-18T19:28:31.065Z,64.29
2023-01-18T19:31:02.830Z,63.63
2023-01-18T19:33:29.794Z,64.05
2023-01-18T19:35:56.898Z,64.13
2023-01-18T19:38:23.967Z,63.53
2023-01-18T19:40:51.194Z,63.01
2023-01-18T19:43:18.154Z,63.64
2023-01-18T19:45:45.077Z,63.56
2023-01-18T19:48:12.058Z,65.09
2023-01-18T19:50:39.042Z,66.85
2023-01-18T19:53:06.038Z,66.47
2023-01-18T19:55:32.997Z,66.61
2023-01-18T19:58:01.668Z,65.57
2023-01-18T20:00:29.561Z,65.70
2023-01-18T20:02:56.583Z,65.45
2023-01-18T20:05:23.524Z,65.85
2023-01-18T20:07:51.370Z,64.98
2023-01-18T20:10:20.412Z,64.99
2023-01-18T20:12:48.554Z,64.79
2023-01-18T20:15:17.457Z,65.82
2023-01-18T20:17:44.570Z,67.10
2023-01-18T20:20:14.357Z,67.28
2023-01-18T20:22:46.236Z,66.18
2023-01-18T20:25:13.161Z,65.62
2023-01-18T20:27:40.143Z,65.51
2023-01-18T20:30:07.800Z,65.51
2023-01-18T20:32:34.754Z,65.65
2023-01-18T20:35:01.663Z,66.20
2023-01-18T20:37:28.561Z,66.66
2023-01-18T20:39:56.291Z,66.29
2023-01-18T20:42:23.281Z,66.03
2023-01-18T20:44:53.650Z,65.47
2023-01-18T20:47:20.574Z,65.52
2023-01-18T20:49:47.861Z,65.03
2023-01-18T20:52:14.833Z,64.64
2023-01-18T20:54:41.744Z,65.02
2023-01-18T20:57:09.564Z,64.26
2023-01-18T20:59:36.616Z,64.76
2023-01-18T21:02:03.788Z,64.43
2023-01-18T21:04:31.017Z,64.32
2023-01-18T21:06:58.095Z,63.78
2023-01-18T21:09:25.895Z,64.38
2023-01-18T21:11:52.805Z,64.55
2023-01-18T21:14:19.672Z,64.22
2023-01-18T21:16:47.098Z,64.75
2023-01-18T21:19:14.058Z,64.13
2023-01-18T21:21:40.988Z,64.44
2023-01-18T21:24:08.093Z,64.21
2023-01-18T21:26:36.168Z,64.62
2023-01-18T21:29:04.213Z,64.29
2023-01-18T21:31:31.502Z,63.73
2023-01-18T21:33:58.388Z,63.46
2023-01-18T21:36:25.285Z,64.16
2023-01-18T21:38:52.270Z,63.75
2023-01-18T21:41:38.053Z,65.16
2023-01-18T21:44:23.779Z,64.69
2023-01-18T21:46:52.166Z,64.40
2023-01-18T21:52:47.199Z,68.08
2023-01-18T21:55:15.401Z,68.50
2023-01-18T21:57:42.755Z,67.66
2023-01-18T22:00:10.833Z,66.49
2023-01-18T22:02:38.273Z,66.59
2023-01-18T22:05:05.840Z,66.09
2023-01-18T22:07:35.371Z,65.61
2023-01-18T22:10:06.049Z,65.26
2023-01-18T22:12:36.082Z,66.04
2023-01-18T22:15:04.634Z,65.96
2023-01-18T22:17:31.774Z,65.52
2023-01-18T22:19:59.046Z,65.88
2023-01-18T22:22:25.974Z,68.78
2023-01-18T22:24:52.918Z,69.54
2023-01-18T22:27:19.871Z,68.97
2023-01-18T22:29:46.794Z,68.03
2023-01-18T22:32:13.804Z,67.75
2023-01-18T22:34:40.718Z,67.69
2023-01-18T22:37:07.600Z,68.72
2023-01-18T22:39:34.456Z,67.97
2023-01-18T22:42:01.354Z,67.82
2023-01-18T22:44:28.349Z,67.59
2023-01-18T22:46:55.228Z,67.18
2023-01-18T22:49:22.228Z,67.98
2023-01-18T22:51:49.087Z,68.31
2023-01-18T22:54:16.184Z,68.57
2023-01-18T22:56:43.065Z,68.54
2023-01-18T22:59:10.068Z,67.74
2023-01-18T23:01:36.930Z,67.24
2023-01-18T23:04:04.725Z,68.57
2023-01-18T23:06:42.436Z,69.49
2023-01-18T23:09:10.300Z,70.11
2023-01-18T23:11:37.619Z,69.18
2023-01-18T23:14:23.915Z,69.15
2023-01-18T23:17:09.585Z,68.95
2023-01-18T23:19:36.514Z,69.36
2023-01-18T23:22:07.452Z,68.75
2023-01-18T23:24:36.799Z,69.71
2023-01-18T23:27:05.582Z,69.91
2023-01-18T23:29:32.430Z,69.61
2023-01-18T23:31:59.580Z,70.15
2023-01-18T23:34:26.781Z,70.25
2023-01-18T23:36:54.180Z,69.89
2023-01-18T23:39:39.693Z,69.71
2023-01-18T23:42:25.473Z,70.58
2023-01-18T23:45:10.985Z,70.86
2023-01-18T23:47:56.537Z,70.97
2023-01-18T23:50:42.074Z,70.80
2023-01-18T23:53:31.679Z,69.80
2023-01-18T23:55:59.284Z,70.28
2023-01-18T23:58:26.927Z,70.43
